Longville, LA (70652)

3:20 PM CDT on August 04, 2015 (GMT -0500)
MesoWest | | Change Station
CLOSE
Current Station
Personal Weather Station
Location: Longville, LA
Elevation: 83 ft
Nearby Weather Stations

Elev 83 ft 30.51 °N, 93.22 °W | Updated 70 days ago

Partly Cloudy
Partly Cloudy
96 °F
Feels Like 102 °F
N
7
Wind Variable Wind from SSE
Gusts mph

Today
High -- | Low -- °F
--% Chance of Precip.
Yesterday
High -- | Low -- °F
Precip. -- in
6:32 AM 8:05 PM
Waning Gibbous, 75% visible
Pressure 29.95 in
Visibility 10.0 miles
Clouds Scattered Clouds 6000 ft
Heat Index 102 °F
Dew Point 68 °F
Humidity 40%
Rainfall in
Snow Depth Not available.
UV 8 out of 12
Pollen 2.80 out of 12
Air Quality Not available.
Flu Activity Not available.
METAR K5R8 042015Z AUTO 17004KT 10SM SCT060 36/20 A2995 RMK AO2 T03550199

More Conditions Fewer Conditions

Pressure 29.95 in
Visibility 10.0 miles
Clouds Scattered Clouds 6000 ft
Heat Index 102 °F
Dew Point 68 °F
Humidity 40%
Rainfall in
Snow Depth Not available.
UV 8 out of 12
Pollen 2.80 out of 12
Air Quality Not available.
Flu Activity Not available.
METAR K5R8 042015Z AUTO 17004KT 10SM SCT060 36/20 A2995 RMK AO2 T03550199

More Conditions Fewer Conditions

10-Day Weather Forecast

×

Almanac

Astronomy

Aug. 04, 2015 Rise Set
Actual Time
Civil Twilight
Nautical Twilight
Astronomical Twilight
Moon
Length of Visible Light
Length of Day
Tomorrow will be .
, % of the Moon is Illuminated

Today's Extremes

State Highs State Lows

Community

WunderPhotos

Upload Photos

1,843,963 photos uploaded!

WunderBlogs® & News

Nearby

Air Quality

  Air Quality AQ Index Pollutant
Not available.

Snow Depth

Station Depth Elevation

Earthquake Activity

City Distance Mag. Time & Date
Minimum magnitude displayed is 2.5.

Coastal Water Temperatures

Place Temperature

Stations

Nearby Weather Stations

Station Location Temp. Windchill Dew Point Humidity Wind Precip. Elev Updated Type